Main page
METAR-TAF:

METAR-TAF

Airports :

Yaoundé Nsimalen International Airport

Yaoundé, Cameroon

latitude: 03-50N, longitude: 011-31E, elevation: 751 m

Current weather observation

The report was made 54 minutes ago, at 19:00 UTC
Calm wind
Temperature 22°C
Humidity 73%
Pressure 1015 hPa
Visibility: 6000 m

METAR: FKYS 271900Z 00000KT 6000 NSC 22/17 Q1015 NOSIG

Time: 20:54 (19:54 UTC)

Forecast

The report was made 2 hours and 54 minutes ago, at 17:00 UTC
Forecast valid from 27 at 18 UTC to 28 at 18 UTC
Wind 3 kt from variable directions
Visibility: 4000 m
Few clouds at a height of 2000 ft
haze
Temporary
from 28 at 02 UTC to 28 at 06 UTC
Visibility: 2000 m
Broken clouds at a height of 600 ft
mist
Probability 40%
between 08 and 00 UTC
fog

TAF: FKYS 271700Z 2718/2818 VRB03KT 4000 HZ FEW020 TEMPO 2802/2806 2000 BR BKN006 PROB40 0800 FG

Weather observations and forecasts of more than 4000 airports (METAR and TAF reports).

The available stations are represented by yellow and red dots on the map.

Hover mouse over dot to see the name of the station.

Then click to see weather observations and forecasts.

To change the map : click on the green buttons with a black cross to zoom in, on the green button with a dash to zoom out, or on the green arrows for adjacent maps.


METAR-TAF: